Huff, North Dakota
Current Conditions -  °F | °C
As of 2:15 AM on Sunday 21 Dec 2014 (Local Time) from KY19 Reporting Station
Clear Clear  
Wind Chill: 18°   Ceiling: Unl
Heat Index: 27°   Visibility: 10mi
Dew Point: 23°   Wind: 8mph
Humidity: 86%   Direction: 200°SSW
Pressure: 29.73"   Gusts: NA
Location:  46.7289°N, 100.983°W
Report Text: KY19 210815Z AUTO 20007KT 10SM CLR M03/M05 A2973 RMK AO2
Loading
Personal Weather Stations






























Interactive Weather Map New forecast layout! Learn more

10-Day Weather Forecast

Advertisements
Track Severe Weather on mobile